createdAt,value
2023-08-17T00:02:57.692Z,96205.06
2023-08-17T00:05:59.760Z,96202.78
2023-08-17T00:09:01.373Z,96192.63
2023-08-17T00:12:03.827Z,96190.34
2023-08-17T00:15:07.218Z,96189.75
2023-08-17T00:18:09.242Z,96198.94
2023-08-17T00:21:11.314Z,96201.53
2023-08-17T00:24:13.392Z,96204.69
2023-08-17T00:27:15.430Z,96213.25
2023-08-17T00:30:19.075Z,96220.00
2023-08-17T00:33:21.373Z,96224.81
2023-08-17T00:36:23.488Z,96219.81
2023-08-17T00:39:25.455Z,96216.72
2023-08-17T00:42:27.825Z,96231.81
2023-08-17T00:45:30.400Z,96227.88
2023-08-17T00:48:33.229Z,96223.13
2023-08-17T00:51:35.442Z,96211.22
2023-08-17T00:54:39.326Z,96215.44
2023-08-17T00:57:42.894Z,96213.16
2023-08-17T01:00:45.250Z,96210.28
2023-08-17T01:03:47.363Z,96203.88
2023-08-17T01:06:51.696Z,96195.31
2023-08-17T01:09:54.592Z,96206.84
2023-08-17T01:13:06.995Z,96207.53
2023-08-17T01:16:16.574Z,96209.22
2023-08-17T01:19:28.098Z,96216.16
2023-08-17T01:22:31.510Z,96218.44
2023-08-17T01:25:40.564Z,96217.81
2023-08-17T01:28:46.831Z,96224.69
2023-08-17T01:31:59.399Z,96224.91
2023-08-17T01:35:30.188Z,96212.81
2023-08-17T01:38:34.495Z,96197.84
2023-08-17T01:41:38.781Z,96200.16
2023-08-17T01:44:41.001Z,96193.28
2023-08-17T01:47:43.149Z,96194.56
2023-08-17T01:50:45.231Z,96188.72
2023-08-17T01:53:48.106Z,96191.69
2023-08-17T01:56:49.768Z,96178.53
2023-08-17T01:59:53.263Z,96183.13
2023-08-17T02:02:55.341Z,96181.47
2023-08-17T02:05:57.958Z,96181.94
2023-08-17T02:09:00.603Z,96188.19
2023-08-17T02:12:02.708Z,96179.22
2023-08-17T02:15:05.140Z,96175.88
2023-08-17T02:18:07.450Z,96179.63
2023-08-17T02:21:10.801Z,96168.63
2023-08-17T02:24:15.532Z,96174.47
2023-08-17T02:27:18.569Z,96173.44
2023-08-17T02:30:20.739Z,96177.19
2023-08-17T02:33:23.384Z,96164.09
2023-08-17T02:36:25.749Z,96164.50
2023-08-17T02:39:29.913Z,96182.25
2023-08-17T02:42:32.346Z,96175.56
2023-08-17T02:45:35.786Z,96174.75
2023-08-17T02:48:37.880Z,96177.91
2023-08-17T02:51:39.944Z,96182.50
2023-08-17T02:54:41.958Z,96178.53
2023-08-17T02:57:45.916Z,96179.59
2023-08-17T03:00:48.022Z,96180.47
2023-08-17T03:03:50.121Z,96177.16
2023-08-17T03:06:52.180Z,96183.00
2023-08-17T03:09:54.156Z,96181.78
2023-08-17T03:12:56.223Z,96180.13
2023-08-17T03:15:58.291Z,96173.44
2023-08-17T03:19:00.890Z,96172.81
2023-08-17T03:22:03.390Z,96177.66
2023-08-17T03:25:11.584Z,96182.44
2023-08-17T03:28:14.361Z,96173.94
2023-08-17T03:31:16.502Z,96178.72
2023-08-17T03:34:18.217Z,96179.34
2023-08-17T03:37:20.372Z,96185.38
2023-08-17T03:40:22.137Z,96186.44
2023-08-17T03:43:24.353Z,96188.94
2023-08-17T03:46:26.534Z,96184.56
2023-08-17T03:49:29.563Z,96187.06
2023-08-17T03:52:32.095Z,96182.47
2023-08-17T03:55:33.810Z,96186.00
2023-08-17T03:58:37.310Z,96184.34
2023-08-17T04:01:40.660Z,96179.13
2023-08-17T04:04:44.355Z,96184.56
2023-08-17T04:07:46.740Z,96190.41
2023-08-17T04:10:48.885Z,96192.69
2023-08-17T04:13:50.976Z,96196.84
2023-08-17T04:16:57.896Z,96203.97
2023-08-17T04:19:59.950Z,96204.97
2023-08-17T04:23:02.905Z,96202.28
2023-08-17T04:26:04.521Z,96202.06
2023-08-17T04:29:07.108Z,96196.66
2023-08-17T04:32:09.265Z,96197.47
2023-08-17T04:35:11.987Z,96204.78
2023-08-17T04:38:15.372Z,96214.56
2023-08-17T04:41:19.062Z,96202.47
2023-08-17T04:44:20.713Z,96205.81
2023-08-17T04:47:22.850Z,96208.53
2023-08-17T04:50:24.980Z,96206.84
2023-08-17T04:53:28.944Z,96216.66
2023-08-17T04:56:31.119Z,96209.56
2023-08-17T04:59:33.253Z,96212.47
2023-08-17T05:02:35.566Z,96206.69
2023-08-17T05:05:38.386Z,96222.91
2023-08-17T05:08:44.133Z,96217.69
2023-08-17T05:11:46.933Z,96220.00
2023-08-17T05:14:48.989Z,96232.25
2023-08-17T05:17:51.326Z,96218.91
2023-08-17T05:20:53.467Z,96221.22
2023-08-17T05:23:55.551Z,96220.38
2023-08-17T05:26:57.588Z,96227.47
2023-08-17T05:29:59.664Z,96228.28
2023-08-17T05:33:01.773Z,96230.13
2023-08-17T05:36:04.643Z,96230.56
2023-08-17T05:39:07.263Z,96233.44
2023-08-17T05:42:11.043Z,96221.16
2023-08-17T05:45:13.065Z,96224.03
2023-08-17T05:48:15.132Z,96235.28
2023-08-17T05:51:17.450Z,96236.75
2023-08-17T05:54:20.037Z,96239.00
2023-08-17T05:57:22.563Z,96238.59
2023-08-17T06:00:24.597Z,96230.63
2023-08-17T06:03:26.738Z,96234.38
2023-08-17T06:06:29.012Z,96235.41
2023-08-17T06:09:30.937Z,96235.59
2023-08-17T06:12:33.065Z,96236.38
2023-08-17T06:15:35.191Z,96238.22
2023-08-17T06:18:37.399Z,96234.63
2023-08-17T06:21:39.540Z,96223.72
2023-08-17T06:24:41.728Z,96219.53
2023-08-17T06:27:57.319Z,96228.63
2023-08-17T06:31:01.394Z,96216.66
2023-08-17T06:34:06.549Z,96219.31
2023-08-17T06:37:13.240Z,96219.03
2023-08-17T06:40:17.231Z,96222.31
2023-08-17T06:43:20.939Z,96223.13
2023-08-17T06:46:23.462Z,96217.84
2023-08-17T06:49:29.838Z,96226.31
2023-08-17T06:52:31.980Z,96216.66
2023-08-17T06:55:34.138Z,96222.63
2023-08-17T06:58:36.428Z,96225.28
2023-08-17T07:01:38.504Z,96226.66
2023-08-17T07:04:40.860Z,96224.69
2023-08-17T07:07:43.880Z,96226.28
2023-08-17T07:10:45.950Z,96231.66
2023-08-17T07:13:48.241Z,96237.84
2023-08-17T07:16:49.987Z,96239.44
2023-08-17T07:20:07.670Z,96238.53
2023-08-17T07:23:14.609Z,96247.78
2023-08-17T07:26:16.774Z,96246.91
2023-08-17T07:29:18.457Z,96254.72
2023-08-17T07:32:20.283Z,96251.13
2023-08-17T07:35:22.368Z,96250.78
2023-08-17T07:38:24.736Z,96245.50
2023-08-17T07:41:26.900Z,96245.75
2023-08-17T07:44:30.000Z,96236.91
2023-08-17T07:47:31.893Z,96242.38
2023-08-17T07:50:34.219Z,96235.81
2023-08-17T07:53:36.252Z,96237.34
2023-08-17T07:56:38.264Z,96242.25
2023-08-17T07:59:40.337Z,96243.53
2023-08-17T08:02:42.017Z,96231.84
2023-08-17T08:05:44.677Z,96233.97
2023-08-17T08:08:47.280Z,96234.81
2023-08-17T08:11:49.321Z,96233.88
2023-08-17T08:14:52.263Z,96231.88
2023-08-17T08:17:55.013Z,96232.59
2023-08-17T08:20:57.093Z,96240.88
2023-08-17T08:23:59.152Z,96238.28
2023-08-17T08:27:02.559Z,96237.78
2023-08-17T08:30:04.456Z,96233.28
2023-08-17T08:33:07.036Z,96235.06
2023-08-17T08:36:08.686Z,96231.94
2023-08-17T08:39:11.881Z,96226.72
2023-08-17T08:42:13.586Z,96232.88
2023-08-17T08:45:16.102Z,96226.09
2023-08-17T08:48:20.295Z,96224.53
2023-08-17T08:51:29.837Z,96229.03
2023-08-17T08:54:37.946Z,96222.03
2023-08-17T08:57:42.510Z,96226.53
2023-08-17T09:00:47.665Z,96231.03
2023-08-17T09:03:50.569Z,96229.22
2023-08-17T09:06:52.946Z,96227.16
2023-08-17T09:09:55.052Z,96222.97
2023-08-17T09:12:57.851Z,96221.53
2023-08-17T09:19:09.874Z,96213.69
2023-08-17T09:22:11.544Z,96220.16
2023-08-17T09:25:23.761Z,96224.97
2023-08-17T09:28:25.906Z,96214.47
2023-08-17T09:31:27.703Z,96206.69
2023-08-17T09:34:32.911Z,96204.34
2023-08-17T09:37:35.662Z,96204.25
2023-08-17T09:40:38.251Z,96205.81
2023-08-17T09:43:40.405Z,96209.28
2023-08-17T09:46:45.684Z,96202.00
2023-08-17T09:49:56.388Z,96199.97
2023-08-17T09:52:58.924Z,96203.16
2023-08-17T09:56:01.634Z,96207.09
2023-08-17T09:59:03.843Z,96205.88
2023-08-17T10:02:21.544Z,96206.50
2023-08-17T10:05:24.353Z,96204.69
2023-08-17T10:08:31.426Z,96200.66
2023-08-17T10:11:40.087Z,96199.69
2023-08-17T10:14:50.712Z,96190.41
2023-08-17T10:18:18.595Z,96189.09
2023-08-17T10:21:37.371Z,96194.94
2023-08-17T10:24:46.760Z,96195.50
2023-08-17T10:27:50.202Z,96186.56
2023-08-17T10:30:52.875Z,96190.47
2023-08-17T10:33:58.005Z,96193.66
2023-08-17T10:37:01.321Z,96192.06
2023-08-17T10:40:04.741Z,96195.97
2023-08-17T10:43:07.195Z,96193.25
2023-08-17T10:46:19.179Z,96187.00
2023-08-17T10:49:28.820Z,96179.31
2023-08-17T10:52:39.247Z,96185.41
2023-08-17T10:55:43.229Z,96185.47
2023-08-17T10:58:45.623Z,96177.00
2023-08-17T11:01:52.941Z,96183.34
2023-08-17T11:04:54.676Z,96181.78
2023-08-17T11:07:56.998Z,96177.41
2023-08-17T11:11:13.819Z,96180.47
2023-08-17T11:14:15.825Z,96174.47
2023-08-17T11:17:17.848Z,96175.56
2023-08-17T11:20:20.258Z,96168.75
2023-08-17T11:23:26.124Z,96166.56
2023-08-17T11:26:28.791Z,96168.50
2023-08-17T11:29:33.334Z,96156.16
2023-08-17T11:32:36.065Z,96166.06
2023-08-17T11:35:38.296Z,96162.50
2023-08-17T11:38:43.031Z,96158.97
2023-08-17T11:41:45.669Z,96149.91
2023-08-17T11:44:47.736Z,96155.16
2023-08-17T11:47:50.693Z,96152.72
2023-08-17T11:50:54.063Z,96151.91
2023-08-17T11:54:00.189Z,96149.16
2023-08-17T11:57:05.366Z,96145.31
2023-08-17T12:00:08.776Z,96145.34
2023-08-17T12:03:16.234Z,96141.50
2023-08-17T12:06:18.643Z,96133.00
2023-08-17T12:09:22.522Z,96131.63
2023-08-17T12:12:25.036Z,96124.75
2023-08-17T12:15:33.299Z,96116.25
2023-08-17T12:18:35.656Z,96115.16
2023-08-17T12:21:38.089Z,96115.69
2023-08-17T12:24:40.287Z,96109.38
2023-08-17T12:27:42.851Z,96097.84
2023-08-17T12:30:45.078Z,96088.47
2023-08-17T12:33:47.172Z,96088.16
2023-08-17T12:36:50.214Z,96082.66
2023-08-17T12:39:52.380Z,96081.53
2023-08-17T12:42:54.538Z,96073.84
2023-08-17T12:45:56.567Z,96080.38
2023-08-17T12:48:58.626Z,96068.81
2023-08-17T12:52:00.714Z,96085.88
2023-08-17T12:55:02.951Z,96085.88
2023-08-17T12:58:06.083Z,96085.59
2023-08-17T13:01:08.268Z,96081.22
2023-08-17T13:04:10.569Z,96089.75
2023-08-17T13:07:12.859Z,96084.53
2023-08-17T13:10:15.016Z,96085.88
2023-08-17T13:13:17.136Z,96091.63
2023-08-17T13:16:19.670Z,96092.44
2023-08-17T13:19:21.379Z,96075.91
2023-08-17T13:22:23.090Z,96085.53
2023-08-17T13:25:24.807Z,96086.31
2023-08-17T13:28:26.901Z,96085.44
2023-08-17T13:31:28.950Z,96079.91
2023-08-17T13:34:31.020Z,96082.13
2023-08-17T13:37:33.080Z,96082.41
2023-08-17T13:40:35.812Z,96080.13
2023-08-17T13:43:37.858Z,96089.44
2023-08-17T13:46:40.639Z,96071.44
2023-08-17T13:49:42.934Z,96063.03
2023-08-17T13:52:45.495Z,96052.38
2023-08-17T13:55:47.939Z,96051.00
2023-08-17T13:58:49.604Z,96045.91
2023-08-17T14:01:51.773Z,96036.72
2023-08-17T14:04:53.443Z,96020.44
2023-08-17T14:07:56.018Z,96030.63
2023-08-17T14:10:58.072Z,96016.94
2023-08-17T14:14:00.324Z,96017.84
2023-08-17T14:17:03.790Z,96020.09
2023-08-17T14:20:06.280Z,96024.59
2023-08-17T14:23:08.345Z,96025.47
2023-08-17T14:26:10.430Z,96028.09
2023-08-17T14:29:12.548Z,96033.97
2023-08-17T14:32:14.156Z,96042.03
2023-08-17T14:35:16.289Z,96031.09
2023-08-17T14:38:18.769Z,96021.50
2023-08-17T14:41:29.849Z,96015.25
2023-08-17T14:44:34.706Z,96019.47
2023-08-17T14:47:39.089Z,96012.38
2023-08-17T14:50:41.067Z,96019.31
2023-08-17T14:53:42.824Z,96027.63
2023-08-17T14:56:45.822Z,96030.34
2023-08-17T14:59:48.217Z,96042.22
2023-08-17T15:02:51.064Z,96062.91
2023-08-17T15:05:53.364Z,96074.00
2023-08-17T15:08:56.243Z,96080.59
2023-08-17T15:11:58.463Z,96083.13
2023-08-17T15:15:00.552Z,96123.88
2023-08-17T15:18:02.710Z,96171.53
2023-08-17T15:21:04.401Z,96175.69
2023-08-17T15:24:06.615Z,96176.75
2023-08-17T15:27:08.759Z,96181.91
2023-08-17T15:30:11.147Z,96181.41
2023-08-17T15:33:13.201Z,96182.72
2023-08-17T15:36:15.644Z,96174.97
2023-08-17T15:39:17.274Z,96186.22
2023-08-17T15:42:18.871Z,96201.47
2023-08-17T15:45:21.727Z,96215.91
2023-08-17T15:48:23.946Z,96253.16
2023-08-17T15:51:28.653Z,96268.63
2023-08-17T15:54:36.578Z,96274.91
2023-08-17T15:57:39.703Z,96285.72
2023-08-17T16:00:41.800Z,96295.63
2023-08-17T16:03:45.863Z,96303.03
2023-08-17T16:06:47.536Z,96305.69
2023-08-17T16:09:49.187Z,96301.28
2023-08-17T16:12:51.603Z,96298.59
2023-08-17T16:15:54.475Z,96291.50
2023-08-17T16:18:56.669Z,96304.84
2023-08-17T16:21:58.700Z,96299.09
2023-08-17T16:25:00.763Z,96313.88
2023-08-17T16:28:03.007Z,96288.88
2023-08-17T16:31:05.722Z,96282.28
2023-08-17T16:34:07.989Z,96268.00
2023-08-17T16:37:10.704Z,96251.88
2023-08-17T16:40:20.905Z,96236.47
2023-08-17T16:43:34.711Z,96201.00
2023-08-17T16:46:36.806Z,96197.81
2023-08-17T16:49:38.820Z,96202.94
2023-08-17T16:52:40.852Z,96200.28
2023-08-17T16:55:44.876Z,96212.91
2023-08-17T16:58:48.103Z,96220.91
2023-08-17T17:01:50.204Z,96218.41
2023-08-17T17:04:52.281Z,96232.19
2023-08-17T17:07:57.533Z,96233.09
2023-08-17T17:11:00.718Z,96241.22
2023-08-17T17:14:02.789Z,96229.16
2023-08-17T17:17:04.847Z,96221.09
2023-08-17T17:20:07.598Z,96223.25
2023-08-17T17:23:09.677Z,96234.34
2023-08-17T17:26:11.772Z,96227.47
2023-08-17T17:29:13.497Z,96232.06
2023-08-17T17:32:15.878Z,96223.91
2023-08-17T17:35:17.461Z,96209.72
2023-08-17T17:38:20.897Z,96216.66
2023-08-17T17:41:22.504Z,96218.94
2023-08-17T17:44:24.616Z,96223.75
2023-08-17T17:47:27.343Z,96209.34
2023-08-17T17:50:29.855Z,96201.44
2023-08-17T17:53:31.996Z,96207.06
2023-08-17T17:56:41.177Z,96208.13
2023-08-17T17:59:46.167Z,96219.59
2023-08-17T18:02:47.870Z,96245.28
2023-08-17T18:05:50.056Z,96288.53
2023-08-17T18:08:53.663Z,96318.38
2023-08-17T18:11:56.348Z,96324.06
2023-08-17T18:14:58.415Z,96341.16
2023-08-17T18:18:00.846Z,96351.00
2023-08-17T18:21:02.577Z,96367.13
2023-08-17T18:24:04.516Z,96367.31
2023-08-17T18:27:06.169Z,96372.97
2023-08-17T18:30:09.446Z,96385.06
2023-08-17T18:33:11.081Z,96394.47
2023-08-17T18:36:13.414Z,96401.97
2023-08-17T18:39:15.628Z,96419.50
2023-08-17T18:42:17.631Z,96425.78
2023-08-17T18:45:20.992Z,96438.75
2023-08-17T18:48:23.064Z,96433.94
2023-08-17T18:51:25.070Z,96433.56
2023-08-17T18:54:27.152Z,96434.38
2023-08-17T18:57:30.711Z,96440.22
2023-08-17T19:00:34.006Z,96421.03
2023-08-17T19:03:35.795Z,96420.19
2023-08-17T19:06:38.038Z,96423.75
2023-08-17T19:09:40.054Z,96408.72
2023-08-17T19:12:42.014Z,96401.59
2023-08-17T19:15:44.062Z,96390.75
2023-08-17T19:18:46.050Z,96385.78
2023-08-17T19:21:48.334Z,96379.53
2023-08-17T19:24:49.940Z,96377.84
2023-08-17T19:27:52.186Z,96359.28
2023-08-17T19:30:53.793Z,96352.00
2023-08-17T19:33:56.228Z,96357.66
2023-08-17T19:36:59.429Z,96357.84
2023-08-17T19:40:01.227Z,96347.84
2023-08-17T19:43:03.915Z,96351.16
2023-08-17T19:46:05.949Z,96352.22
2023-08-17T19:49:07.987Z,96356.81
2023-08-17T19:52:09.710Z,96373.69
2023-08-17T19:55:14.084Z,96388.28
2023-08-17T19:58:16.234Z,96400.19
2023-08-17T20:01:18.638Z,96390.59
2023-08-17T20:04:20.789Z,96375.56
2023-08-17T20:07:22.844Z,96376.41
2023-08-17T20:10:25.029Z,96378.91
2023-08-17T20:13:27.068Z,96371.63
2023-08-17T20:16:28.758Z,96372.44
2023-08-17T20:19:33.612Z,96375.38
2023-08-17T20:22:35.726Z,96373.91
2023-08-17T20:25:37.518Z,96373.91
2023-08-17T20:28:40.124Z,96364.72
2023-08-17T20:31:42.592Z,96357.44
2023-08-17T20:34:44.650Z,96362.25
2023-08-17T20:37:46.680Z,96373.91
2023-08-17T20:40:49.206Z,96384.75
2023-08-17T20:43:53.837Z,96391.44
2023-08-17T20:46:56.175Z,96392.28
2023-08-17T20:49:59.639Z,96394.16
2023-08-17T20:53:02.893Z,96400.63
2023-08-17T20:56:05.100Z,96388.09
2023-08-17T20:59:07.242Z,96379.59
2023-08-17T21:02:10.199Z,96361.03
2023-08-17T21:05:12.254Z,96354.75
2023-08-17T21:08:14.528Z,96346.84
2023-08-17T21:11:17.062Z,96347.50
2023-08-17T21:14:19.161Z,96347.06
2023-08-17T21:17:21.258Z,96348.53
2023-08-17T21:20:23.395Z,96348.97
2023-08-17T21:23:25.805Z,96351.06
2023-08-17T21:26:27.811Z,96337.31
2023-08-17T21:29:30.532Z,96339.19
2023-08-17T21:32:32.567Z,96350.88
2023-08-17T21:35:36.785Z,96365.25
2023-08-17T21:38:38.399Z,96367.94
2023-08-17T21:41:41.602Z,96360.47
2023-08-17T21:44:43.702Z,96359.84
2023-08-17T21:47:45.753Z,96364.22
2023-08-17T21:50:47.797Z,96374.63
2023-08-17T21:53:49.914Z,96385.44
2023-08-17T21:56:51.549Z,96378.59
2023-08-17T21:59:53.956Z,96379.00
2023-08-17T22:02:56.080Z,96374.00
2023-08-17T22:06:01.088Z,96382.75
2023-08-17T22:09:03.241Z,96380.03
2023-08-17T22:12:05.596Z,96382.34
2023-08-17T22:15:08.581Z,96377.28
2023-08-17T22:18:10.702Z,96378.56
2023-08-17T22:21:12.786Z,96367.94
2023-08-17T22:24:14.398Z,96365.44
2023-08-17T22:27:17.236Z,96367.50
2023-08-17T22:30:19.050Z,96361.69
2023-08-17T22:33:21.072Z,96358.34
2023-08-17T22:36:23.860Z,96357.09
2023-08-17T22:39:25.544Z,96364.41
2023-08-17T22:42:27.972Z,96353.97
2023-08-17T22:45:29.992Z,96348.94
2023-08-17T22:48:32.158Z,96344.81
2023-08-17T22:51:34.396Z,96339.78
2023-08-17T22:54:36.494Z,96336.69
2023-08-17T22:57:38.775Z,96332.50
2023-08-17T23:00:40.537Z,96323.16
2023-08-17T23:03:43.450Z,96328.13
2023-08-17T23:06:45.605Z,96323.34
2023-08-17T23:09:47.997Z,96318.34
2023-08-17T23:12:49.611Z,96316.06
2023-08-17T23:15:51.281Z,96312.09
2023-08-17T23:18:52.917Z,96312.28
2023-08-17T23:21:54.730Z,96310.84
2023-08-17T23:24:56.828Z,96311.25
2023-08-17T23:27:58.906Z,96315.81
2023-08-17T23:31:01.069Z,96309.38
2023-08-17T23:34:02.897Z,96314.78
2023-08-17T23:37:05.036Z,96316.00
2023-08-17T23:40:08.329Z,96310.00
2023-08-17T23:43:10.394Z,96317.47
2023-08-17T23:46:12.634Z,96306.00
2023-08-17T23:49:17.136Z,96310.19
2023-08-17T23:52:18.745Z,96304.13
2023-08-17T23:55:21.384Z,96308.06
2023-08-17T23:58:23.125Z,96306.63
